createdAt,value
2023-10-26T00:00:00.728Z,9.41
2023-10-26T00:02:45.848Z,9.42
2023-10-26T00:05:31.333Z,9.42
2023-10-26T00:08:16.312Z,9.44
2023-10-26T00:11:04.922Z,9.45
2023-10-26T00:13:50.012Z,9.43
2023-10-26T00:16:35.390Z,9.46
2023-10-26T00:19:21.757Z,9.41
2023-10-26T00:22:06.926Z,9.38
2023-10-26T00:24:52.272Z,9.44
2023-10-26T00:27:41.814Z,9.43
2023-10-26T00:30:27.496Z,9.40
2023-10-26T00:33:13.041Z,9.42
2023-10-26T00:35:58.311Z,9.42
2023-10-26T00:38:43.306Z,9.49
2023-10-26T00:41:28.229Z,9.47
2023-10-26T00:44:13.313Z,9.45
2023-10-26T00:46:58.252Z,9.43
2023-10-26T00:49:43.794Z,9.42
2023-10-26T00:52:29.576Z,9.41
2023-10-26T00:55:14.729Z,9.34
2023-10-26T00:58:00.191Z,9.36
2023-10-26T01:00:45.900Z,9.38
2023-10-26T01:03:32.781Z,9.42
2023-10-26T01:06:17.983Z,9.38
2023-10-26T01:09:03.070Z,9.39
2023-10-26T01:11:48.781Z,9.41
2023-10-26T01:14:34.096Z,9.40
2023-10-26T01:17:19.495Z,9.33
2023-10-26T01:20:07.009Z,9.41
2023-10-26T01:22:52.322Z,9.34
2023-10-26T01:25:37.627Z,9.34
2023-10-26T01:28:24.328Z,9.28
2023-10-26T01:31:09.558Z,9.38
2023-10-26T01:33:54.537Z,9.35
2023-10-26T01:36:39.645Z,9.41
2023-10-26T01:39:25.439Z,9.37
2023-10-26T01:42:13.164Z,9.41
2023-10-26T01:44:58.151Z,9.40
2023-10-26T01:47:43.083Z,9.36
2023-10-26T01:50:28.091Z,9.45
2023-10-26T01:53:13.309Z,9.42
2023-10-26T01:55:58.250Z,9.39
2023-10-26T01:58:43.455Z,9.42
2023-10-26T02:01:28.698Z,9.39
2023-10-26T02:04:13.700Z,9.27
2023-10-26T02:06:59.014Z,9.32
2023-10-26T02:09:44.014Z,9.32
2023-10-26T02:12:29.088Z,9.37
2023-10-26T02:15:14.157Z,9.44
2023-10-26T02:17:59.510Z,9.40
2023-10-26T02:20:44.523Z,9.33
2023-10-26T02:23:29.683Z,9.42
2023-10-26T02:26:14.990Z,9.40
2023-10-26T02:28:59.936Z,9.32
2023-10-26T02:31:44.874Z,9.39
2023-10-26T02:34:30.171Z,9.32
2023-10-26T02:37:15.206Z,9.43
2023-10-26T02:40:00.431Z,9.44
2023-10-26T02:42:45.854Z,9.46
2023-10-26T02:45:32.291Z,9.49
2023-10-26T02:48:17.491Z,9.54
2023-10-26T02:51:02.662Z,9.56
2023-10-26T02:53:47.913Z,9.58
2023-10-26T02:56:33.095Z,9.58
2023-10-26T02:59:18.058Z,9.53
2023-10-26T03:02:03.000Z,9.51
2023-10-26T03:04:48.142Z,9.47
2023-10-26T03:07:33.475Z,9.45
2023-10-26T03:10:19.207Z,9.40
2023-10-26T03:13:05.821Z,9.46
2023-10-26T03:15:50.974Z,9.50
2023-10-26T03:18:37.466Z,9.49
2023-10-26T03:21:22.320Z,9.50
2023-10-26T03:24:08.092Z,9.50
2023-10-26T03:26:53.495Z,9.52
2023-10-26T03:29:38.648Z,9.60
2023-10-26T03:32:23.854Z,9.61
2023-10-26T03:35:09.871Z,9.61
2023-10-26T03:37:55.091Z,9.63
2023-10-26T03:40:40.351Z,9.56
2023-10-26T03:43:25.353Z,9.55
2023-10-26T03:46:10.411Z,9.73
2023-10-26T03:48:55.510Z,9.70
2023-10-26T03:51:40.470Z,9.60
2023-10-26T03:54:25.512Z,9.66
2023-10-26T03:57:10.812Z,9.64
2023-10-26T03:59:56.007Z,9.70
2023-10-26T04:02:41.046Z,9.72
2023-10-26T04:05:26.098Z,9.69
2023-10-26T04:08:11.129Z,9.64
2023-10-26T04:10:56.225Z,9.75
2023-10-26T04:13:41.162Z,9.70
2023-10-26T04:16:26.765Z,9.72
2023-10-26T04:19:11.682Z,9.70
2023-10-26T04:21:56.748Z,9.70
2023-10-26T04:24:42.032Z,9.70
2023-10-26T04:27:27.322Z,9.74
2023-10-26T04:30:12.704Z,9.72
2023-10-26T04:32:57.613Z,9.77
2023-10-26T04:35:43.816Z,9.79
2023-10-26T04:38:29.038Z,9.78
2023-10-26T04:41:14.395Z,9.76
2023-10-26T04:44:00.259Z,9.77
2023-10-26T04:46:45.693Z,9.75
2023-10-26T04:49:30.951Z,9.77
2023-10-26T04:52:19.429Z,9.82
2023-10-26T04:55:05.250Z,9.82
2023-10-26T04:57:50.345Z,9.83
2023-10-26T05:00:35.508Z,9.74
2023-10-26T05:03:20.668Z,9.81
2023-10-26T05:06:06.092Z,9.80
2023-10-26T05:08:51.333Z,9.78
2023-10-26T05:11:36.699Z,9.79
2023-10-26T05:14:21.545Z,9.84
2023-10-26T05:17:06.673Z,9.85
2023-10-26T05:19:51.797Z,9.88
2023-10-26T05:22:37.188Z,9.89
2023-10-26T05:25:22.359Z,9.84
2023-10-26T05:28:07.676Z,9.89
2023-10-26T05:30:52.833Z,9.88
2023-10-26T05:33:37.898Z,9.89
2023-10-26T05:36:23.708Z,9.88
2023-10-26T05:39:08.711Z,9.73
2023-10-26T05:41:53.968Z,9.87
2023-10-26T05:44:49.412Z,9.90
2023-10-26T05:47:34.410Z,9.88
2023-10-26T05:50:21.229Z,9.75
2023-10-26T05:53:06.565Z,9.89
2023-10-26T05:56:01.055Z,9.85
2023-10-26T05:58:46.559Z,9.93
2023-10-26T06:01:31.969Z,9.94
2023-10-26T06:04:17.172Z,9.91
2023-10-26T06:07:03.127Z,9.98
2023-10-26T06:09:48.304Z,10.01
2023-10-26T06:12:33.436Z,10.02
2023-10-26T06:15:18.332Z,10.03
2023-10-26T06:18:03.847Z,9.98
2023-10-26T06:20:59.934Z,10.06
2023-10-26T06:23:45.592Z,10.07
2023-10-26T06:26:30.795Z,10.10
2023-10-26T06:29:15.879Z,10.13
2023-10-26T06:32:00.918Z,10.11
2023-10-26T06:34:46.725Z,10.11
2023-10-26T06:37:31.908Z,10.13
2023-10-26T06:40:17.149Z,10.13
2023-10-26T06:43:02.140Z,10.12
2023-10-26T06:45:47.168Z,10.15
2023-10-26T06:48:32.696Z,10.18
2023-10-26T06:51:18.423Z,10.20
2023-10-26T06:54:03.600Z,10.22
2023-10-26T06:56:48.692Z,10.22
2023-10-26T06:59:33.778Z,10.23
2023-10-26T07:02:18.966Z,10.27
2023-10-26T07:05:07.133Z,10.30
2023-10-26T07:07:52.158Z,10.37
2023-10-26T07:10:40.977Z,10.43
2023-10-26T07:13:28.649Z,10.48
2023-10-26T07:16:14.405Z,10.52
2023-10-26T07:18:59.361Z,10.53
2023-10-26T07:21:45.717Z,10.53
2023-10-26T07:24:33.769Z,10.53
2023-10-26T07:27:18.705Z,10.55
2023-10-26T07:30:04.941Z,10.57
2023-10-26T07:32:50.101Z,10.60
2023-10-26T07:35:43.998Z,10.63
2023-10-26T07:38:35.510Z,10.66
2023-10-26T07:44:32.177Z,10.75
2023-10-26T07:47:17.238Z,10.76
2023-10-26T07:50:02.483Z,10.78
2023-10-26T07:52:48.657Z,10.75
2023-10-26T07:55:34.702Z,10.66
2023-10-26T07:58:19.959Z,10.80
2023-10-26T08:01:11.445Z,10.75
2023-10-26T08:03:56.520Z,10.84
2023-10-26T08:06:41.749Z,10.82
2023-10-26T08:09:30.093Z,10.92
2023-10-26T08:12:15.354Z,10.85
2023-10-26T08:16:06.065Z,10.91
2023-10-26T08:18:05.785Z,10.97
2023-10-26T08:20:52.398Z,11.01
2023-10-26T08:23:37.434Z,11.07
2023-10-26T08:26:22.801Z,11.16
2023-10-26T08:29:14.119Z,11.26
2023-10-26T08:32:01.373Z,11.34
2023-10-26T08:34:47.419Z,11.40
2023-10-26T08:37:32.592Z,11.45
2023-10-26T08:40:18.106Z,11.53
2023-10-26T08:43:06.914Z,11.60
2023-10-26T08:45:53.102Z,11.63
2023-10-26T08:48:40.895Z,11.66
2023-10-26T08:51:27.775Z,11.72
2023-10-26T08:54:12.925Z,11.64
2023-10-26T08:57:06.339Z,11.82
2023-10-26T08:59:51.468Z,11.85
2023-10-26T09:02:36.479Z,11.96
2023-10-26T09:05:21.967Z,12.01
2023-10-26T09:08:20.557Z,12.04
2023-10-26T09:11:21.438Z,12.16
2023-10-26T09:14:13.976Z,12.17
2023-10-26T09:17:01.402Z,12.21
2023-10-26T09:19:47.603Z,12.25
2023-10-26T09:22:37.717Z,12.31
2023-10-26T09:25:22.564Z,12.34
2023-10-26T09:28:08.297Z,12.35
2023-10-26T09:31:01.060Z,12.51
2023-10-26T09:33:47.283Z,12.52
2023-10-26T09:36:32.445Z,12.50
2023-10-26T09:39:17.707Z,12.52
2023-10-26T09:42:04.221Z,12.60
2023-10-26T09:44:49.636Z,12.63
2023-10-26T09:47:35.447Z,12.61
2023-10-26T09:50:20.736Z,12.59
2023-10-26T09:53:06.277Z,12.57
2023-10-26T09:55:51.804Z,12.58
2023-10-26T09:58:41.873Z,12.61
2023-10-26T10:01:38.890Z,12.67
2023-10-26T10:04:40.550Z,12.70
2023-10-26T10:07:45.550Z,12.75
2023-10-26T10:10:30.868Z,12.84
2023-10-26T10:13:38.911Z,12.82
2023-10-26T10:16:37.250Z,12.75
2023-10-26T10:19:24.772Z,12.86
2023-10-26T10:22:45.136Z,13.02
2023-10-26T10:25:52.005Z,13.17
2023-10-26T10:28:42.032Z,13.17
2023-10-26T10:31:38.868Z,13.13
2023-10-26T10:34:29.135Z,13.19
2023-10-26T10:37:22.471Z,13.27
2023-10-26T10:40:15.976Z,13.14
2023-10-26T10:43:13.855Z,13.42
2023-10-26T10:46:25.122Z,13.48
2023-10-26T10:49:12.184Z,13.50
2023-10-26T10:51:58.249Z,13.42
2023-10-26T10:54:56.681Z,13.56
2023-10-26T10:57:56.552Z,13.77
2023-10-26T11:00:47.291Z,13.75
2023-10-26T11:03:32.457Z,13.84
2023-10-26T11:06:18.718Z,13.85
2023-10-26T11:09:04.300Z,14.07
2023-10-26T11:11:49.429Z,14.17
2023-10-26T11:14:34.388Z,14.37
2023-10-26T11:17:24.544Z,14.42
2023-10-26T11:20:40.451Z,14.22
2023-10-26T11:23:26.212Z,14.13
2023-10-26T11:26:15.426Z,14.29
2023-10-26T11:29:05.706Z,14.41
2023-10-26T11:31:51.543Z,14.72
2023-10-26T11:34:36.773Z,14.68
2023-10-26T11:37:27.957Z,14.94
2023-10-26T11:40:15.157Z,14.88
2023-10-26T11:43:02.052Z,14.99
2023-10-26T11:45:49.281Z,14.90
2023-10-26T11:48:34.947Z,14.74
2023-10-26T11:51:20.641Z,14.69
2023-10-26T11:54:13.947Z,14.47
2023-10-26T11:56:58.820Z,14.32
2023-10-26T11:59:44.090Z,14.25
2023-10-26T12:02:29.496Z,14.29
2023-10-26T12:05:17.143Z,14.23
2023-10-26T12:08:02.338Z,14.16
2023-10-26T12:10:47.818Z,14.13
2023-10-26T12:13:34.863Z,14.18
2023-10-26T12:16:20.086Z,14.21
2023-10-26T12:19:05.029Z,14.43
2023-10-26T12:21:50.840Z,14.49
2023-10-26T12:24:37.122Z,14.62
2023-10-26T12:27:24.460Z,14.72
2023-10-26T12:30:10.303Z,15.03
2023-10-26T12:32:55.432Z,15.37
2023-10-26T12:35:41.726Z,15.56
2023-10-26T12:38:26.752Z,15.55
2023-10-26T12:41:11.576Z,15.69
2023-10-26T12:43:56.610Z,15.74
2023-10-26T12:46:41.608Z,15.72
2023-10-26T12:49:26.923Z,15.80
2023-10-26T12:52:12.497Z,15.78
2023-10-26T12:54:57.918Z,16.08
2023-10-26T12:57:43.049Z,16.36
2023-10-26T13:00:28.835Z,16.51
2023-10-26T13:03:14.566Z,16.46
2023-10-26T13:05:59.788Z,16.41
2023-10-26T13:08:45.857Z,16.50
2023-10-26T13:11:31.519Z,16.28
2023-10-26T13:14:16.411Z,16.04
2023-10-26T13:17:01.537Z,16.02
2023-10-26T13:19:46.907Z,16.03
2023-10-26T13:22:31.902Z,15.91
2023-10-26T13:25:16.857Z,15.85
2023-10-26T13:28:02.278Z,15.70
2023-10-26T13:30:48.372Z,15.63
2023-10-26T13:33:34.143Z,15.65
2023-10-26T13:36:19.472Z,15.53
2023-10-26T13:39:07.127Z,15.61
2023-10-26T13:41:52.058Z,15.75
2023-10-26T13:44:37.146Z,15.72
2023-10-26T13:47:22.106Z,15.90
2023-10-26T13:50:07.655Z,16.10
2023-10-26T13:52:53.122Z,16.17
2023-10-26T13:55:38.599Z,16.19
2023-10-26T13:58:24.121Z,16.16
2023-10-26T14:01:13.871Z,16.21
2023-10-26T14:03:59.415Z,16.28
2023-10-26T14:06:44.350Z,16.34
2023-10-26T14:09:31.472Z,16.25
2023-10-26T14:12:16.662Z,16.09
2023-10-26T14:15:03.224Z,16.00
2023-10-26T14:17:48.622Z,16.07
2023-10-26T14:20:34.177Z,16.23
2023-10-26T14:23:20.098Z,16.75
2023-10-26T14:26:05.237Z,17.06
2023-10-26T14:28:51.200Z,17.13
2023-10-26T14:31:36.278Z,17.15
2023-10-26T14:34:21.327Z,17.00
2023-10-26T14:37:06.604Z,17.01
2023-10-26T14:39:51.658Z,16.69
2023-10-26T14:42:36.676Z,16.52
2023-10-26T14:45:24.772Z,16.56
2023-10-26T14:48:10.811Z,16.46
2023-10-26T14:51:00.011Z,16.54
2023-10-26T14:53:44.920Z,16.69
2023-10-26T14:56:29.916Z,16.58
2023-10-26T14:59:14.920Z,16.44
2023-10-26T15:02:00.182Z,16.32
2023-10-26T15:04:45.780Z,16.23
2023-10-26T15:07:31.152Z,16.23
2023-10-26T15:10:23.854Z,16.08
2023-10-26T15:13:10.950Z,15.92
2023-10-26T15:16:00.794Z,15.66
2023-10-26T15:18:46.140Z,15.53
2023-10-26T15:21:31.116Z,15.47
2023-10-26T15:24:16.011Z,15.46
2023-10-26T15:27:01.216Z,15.42
2023-10-26T15:29:46.650Z,15.38
2023-10-26T15:32:32.026Z,15.33
2023-10-26T15:35:17.373Z,15.24
2023-10-26T15:38:02.890Z,15.12
2023-10-26T15:41:14.324Z,15.00
2023-10-26T15:43:59.676Z,14.93
2023-10-26T15:46:44.826Z,14.83
2023-10-26T15:49:33.005Z,14.77
2023-10-26T15:52:21.293Z,14.62
2023-10-26T15:55:06.771Z,14.59
2023-10-26T15:57:51.709Z,14.60
2023-10-26T16:00:37.042Z,14.54
2023-10-26T16:03:22.123Z,14.46
2023-10-26T16:06:09.290Z,14.41
2023-10-26T16:08:54.471Z,14.36
2023-10-26T16:11:39.983Z,14.21
2023-10-26T16:14:25.248Z,14.17
2023-10-26T16:17:10.508Z,14.11
2023-10-26T16:19:55.703Z,14.02
2023-10-26T16:22:40.770Z,13.89
2023-10-26T16:25:27.307Z,13.92
2023-10-26T16:28:12.567Z,13.83
2023-10-26T16:30:59.391Z,13.78
2023-10-26T16:33:45.805Z,13.70
2023-10-26T16:36:30.889Z,13.70
2023-10-26T16:39:16.072Z,13.68
2023-10-26T16:42:02.628Z,13.65
2023-10-26T16:44:47.728Z,13.65
2023-10-26T16:47:40.808Z,13.55
2023-10-26T16:50:30.666Z,13.57
2023-10-26T16:53:29.786Z,13.55
2023-10-26T16:56:16.572Z,13.43
2023-10-26T16:59:01.799Z,13.52
2023-10-26T17:01:46.963Z,13.42
2023-10-26T17:04:32.736Z,13.50
2023-10-26T17:07:18.100Z,13.49
2023-10-26T17:10:04.637Z,13.43
2023-10-26T17:12:50.037Z,13.38
2023-10-26T17:15:35.013Z,13.34
2023-10-26T17:18:21.565Z,13.27
2023-10-26T17:21:06.939Z,13.21
2023-10-26T17:23:52.681Z,13.17
2023-10-26T17:26:37.780Z,13.12
2023-10-26T17:29:23.090Z,13.04
2023-10-26T17:32:08.309Z,13.01
2023-10-26T17:34:53.437Z,12.88
2023-10-26T17:37:38.623Z,12.90
2023-10-26T17:40:23.607Z,12.90
2023-10-26T17:43:09.488Z,12.79
2023-10-26T17:45:55.661Z,12.85
2023-10-26T17:48:40.756Z,12.81
2023-10-26T17:51:25.832Z,12.75
2023-10-26T17:54:13.511Z,12.69
2023-10-26T17:56:58.604Z,12.65
2023-10-26T17:59:43.999Z,12.61
2023-10-26T18:02:29.522Z,12.49
2023-10-26T18:05:14.949Z,12.51
2023-10-26T18:08:00.107Z,12.49
2023-10-26T18:10:45.167Z,12.42
2023-10-26T18:13:31.117Z,12.40
2023-10-26T18:16:16.525Z,12.30
2023-10-26T18:19:02.854Z,12.27
2023-10-26T18:21:47.694Z,12.21
2023-10-26T18:24:33.699Z,12.14
2023-10-26T18:27:18.645Z,12.10
2023-10-26T18:30:05.440Z,12.06
2023-10-26T18:32:51.161Z,12.09
2023-10-26T18:35:36.063Z,12.02
2023-10-26T18:38:21.135Z,11.96
2023-10-26T18:41:06.281Z,11.91
2023-10-26T18:43:52.833Z,11.82
2023-10-26T18:46:37.880Z,11.84
2023-10-26T18:49:23.152Z,11.78
2023-10-26T18:52:08.295Z,11.70
2023-10-26T18:54:53.242Z,11.69
2023-10-26T18:57:38.292Z,11.61
2023-10-26T19:00:23.325Z,11.62
2023-10-26T19:03:10.779Z,11.57
2023-10-26T19:05:55.751Z,11.45
2023-10-26T19:08:40.722Z,11.42
2023-10-26T19:11:26.013Z,11.38
2023-10-26T19:14:11.519Z,11.38
2023-10-26T19:16:56.529Z,11.36
2023-10-26T19:19:41.515Z,11.35
2023-10-26T19:22:26.738Z,11.29
2023-10-26T19:25:13.055Z,11.21
2023-10-26T19:27:59.952Z,11.01
2023-10-26T19:30:45.297Z,10.92
2023-10-26T19:33:30.281Z,10.93
2023-10-26T19:36:15.260Z,10.86
2023-10-26T19:39:00.320Z,10.85
2023-10-26T19:41:45.393Z,10.87
2023-10-26T19:44:30.709Z,10.87
2023-10-26T19:47:17.412Z,10.74
2023-10-26T19:50:03.553Z,10.79
2023-10-26T19:52:48.554Z,10.82
2023-10-26T19:55:33.629Z,10.66
2023-10-26T19:58:19.091Z,10.65
2023-10-26T20:01:05.764Z,10.59
2023-10-26T20:03:51.331Z,10.64
2023-10-26T20:06:36.374Z,10.66
2023-10-26T20:09:21.476Z,10.58
2023-10-26T20:12:07.786Z,10.59
2023-10-26T20:14:52.811Z,10.53
2023-10-26T20:17:38.110Z,10.54
2023-10-26T20:20:29.145Z,10.52
2023-10-26T20:23:14.147Z,10.42
2023-10-26T20:25:59.134Z,10.35
2023-10-26T20:28:44.533Z,10.31
2023-10-26T20:31:30.586Z,10.21
2023-10-26T20:34:18.405Z,10.24
2023-10-26T20:37:05.376Z,10.22
2023-10-26T20:39:50.303Z,10.18
2023-10-26T20:42:36.863Z,10.12
2023-10-26T20:45:22.147Z,10.05
2023-10-26T20:48:07.243Z,9.98
2023-10-26T20:50:52.468Z,9.93
2023-10-26T20:53:37.763Z,9.81
2023-10-26T20:56:23.174Z,9.83
2023-10-26T20:59:08.246Z,9.82
2023-10-26T21:01:53.560Z,9.87
2023-10-26T21:04:39.099Z,9.87
2023-10-26T21:07:24.988Z,9.87
2023-10-26T21:10:10.531Z,9.86
2023-10-26T21:12:55.795Z,9.83
2023-10-26T21:15:41.246Z,9.79
2023-10-26T21:18:26.626Z,9.75
2023-10-26T21:21:11.778Z,9.74
2023-10-26T21:23:57.410Z,9.67
2023-10-26T21:26:42.698Z,9.62
2023-10-26T21:29:28.082Z,9.56
2023-10-26T21:32:13.312Z,9.52
2023-10-26T21:34:59.257Z,9.52
2023-10-26T21:37:44.454Z,9.53
2023-10-26T21:40:29.788Z,9.48
2023-10-26T21:43:15.953Z,9.26
2023-10-26T21:46:07.765Z,9.21
2023-10-26T21:48:52.838Z,9.17
2023-10-26T21:51:37.793Z,9.16
2023-10-26T21:54:22.958Z,9.54
2023-10-26T21:57:07.848Z,9.44
2023-10-26T21:59:52.942Z,9.37
2023-10-26T22:02:38.405Z,9.22
2023-10-26T22:05:24.348Z,9.22
2023-10-26T22:08:09.304Z,9.23
2023-10-26T22:10:54.349Z,9.22
2023-10-26T22:13:39.434Z,9.21
2023-10-26T22:16:24.382Z,9.19
2023-10-26T22:19:09.705Z,9.13
2023-10-26T22:21:54.597Z,9.00
2023-10-26T22:24:39.729Z,8.95
2023-10-26T22:27:24.686Z,8.98
2023-10-26T22:30:09.892Z,9.04
2023-10-26T22:32:55.036Z,8.99
2023-10-26T22:35:40.328Z,8.93
2023-10-26T22:38:25.471Z,8.82
2023-10-26T22:41:11.433Z,8.77
2023-10-26T22:43:56.428Z,8.74
2023-10-26T22:46:41.415Z,8.69
2023-10-26T22:49:26.388Z,8.64
2023-10-26T22:52:12.074Z,8.60
2023-10-26T22:54:59.081Z,8.58
2023-10-26T22:57:45.824Z,8.46
2023-10-26T23:00:30.937Z,8.54
2023-10-26T23:03:16.113Z,8.57
2023-10-26T23:06:01.195Z,8.52
2023-10-26T23:08:46.057Z,8.65
2023-10-26T23:11:31.234Z,8.67
2023-10-26T23:14:16.499Z,8.66
2023-10-26T23:17:01.407Z,8.64
2023-10-26T23:19:47.743Z,8.55
2023-10-26T23:22:32.825Z,8.50
2023-10-26T23:25:18.221Z,8.51
2023-10-26T23:28:03.230Z,8.53
2023-10-26T23:30:48.520Z,8.48
2023-10-26T23:33:34.698Z,8.54
2023-10-26T23:36:22.830Z,8.58
2023-10-26T23:39:07.921Z,8.56
2023-10-26T23:41:53.089Z,8.68
2023-10-26T23:44:38.150Z,8.69
2023-10-26T23:47:23.396Z,8.66
2023-10-26T23:50:08.815Z,8.56
2023-10-26T23:52:53.866Z,8.65
2023-10-26T23:55:38.756Z,8.63
2023-10-26T23:58:34.126Z,8.66
